createdAt,value
2018-10-09T00:01:51.112Z,6.50
2018-10-09T00:04:19.339Z,3.80
2018-10-09T00:06:47.780Z,5.53
2018-10-09T00:09:16.031Z,5.43
2018-10-09T00:11:44.287Z,4.67
2018-10-09T00:14:12.513Z,5.87
2018-10-09T00:16:41.449Z,4.83
2018-10-09T00:22:07.646Z,5.63
2018-10-09T00:24:35.863Z,4.87
2018-10-09T00:27:04.299Z,7.20
2018-10-09T00:29:32.537Z,7.33
2018-10-09T00:32:01.288Z,6.97
2018-10-09T00:34:29.885Z,8.27
2018-10-09T00:36:58.980Z,6.50
2018-10-09T00:39:27.234Z,8.00
2018-10-09T00:41:55.516Z,8.33
2018-10-09T00:44:23.816Z,6.67
2018-10-09T00:46:52.156Z,6.40
2018-10-09T00:49:21.056Z,6.07
2018-10-09T00:51:49.262Z,5.50
2018-10-09T00:54:17.491Z,8.20
2018-10-09T00:56:46.391Z,7.13
2018-10-09T00:59:14.578Z,5.83
2018-10-09T01:01:42.793Z,9.27
2018-10-09T01:04:11.394Z,5.13
2018-10-09T01:06:39.773Z,8.27
2018-10-09T01:09:08.926Z,6.00
2018-10-09T01:11:37.141Z,9.23
2018-10-09T01:14:05.384Z,10.83
2018-10-09T01:16:33.683Z,6.53
2018-10-09T01:19:01.956Z,7.93
2018-10-09T01:21:30.221Z,7.80
2018-10-09T01:23:58.420Z,8.43
2018-10-09T01:26:26.805Z,8.13
2018-10-09T01:28:55.036Z,9.53
2018-10-09T01:31:23.248Z,7.30
2018-10-09T01:33:51.484Z,7.37
2018-10-09T01:36:19.917Z,7.20
2018-10-09T01:38:48.170Z,7.87
2018-10-09T01:41:16.389Z,8.23
2018-10-09T01:43:44.617Z,8.17
2018-10-09T01:46:13.226Z,8.37
2018-10-09T01:48:41.457Z,8.07
2018-10-09T01:51:09.669Z,7.90
2018-10-09T01:53:37.906Z,9.10
2018-10-09T01:56:06.327Z,11.57
2018-10-09T01:58:34.555Z,12.60
2018-10-09T02:01:02.806Z,12.80
2018-10-09T02:03:31.007Z,9.07
2018-10-09T02:05:59.642Z,12.53
2018-10-09T02:08:27.883Z,8.37
2018-10-09T02:10:56.426Z,8.03
2018-10-09T02:13:24.715Z,11.50
2018-10-09T02:15:53.146Z,9.67
2018-10-09T02:18:21.614Z,12.37
2018-10-09T02:20:49.873Z,7.90
2018-10-09T02:23:18.390Z,10.67
2018-10-09T02:25:46.638Z,10.13
2018-10-09T02:28:14.866Z,9.70
2018-10-09T02:30:43.089Z,11.57
2018-10-09T02:33:11.332Z,13.17
2018-10-09T02:35:39.862Z,8.23
2018-10-09T02:38:08.106Z,9.87
2018-10-09T02:40:36.317Z,11.37
2018-10-09T02:43:04.554Z,12.00
2018-10-09T02:45:32.805Z,9.87
2018-10-09T02:48:01.043Z,11.87
2018-10-09T02:50:29.264Z,11.27
2018-10-09T02:52:57.489Z,12.97
2018-10-09T02:55:25.698Z,9.70
2018-10-09T02:57:54.025Z,14.27
2018-10-09T03:00:22.289Z,9.90
2018-10-09T03:02:50.526Z,10.03
2018-10-09T03:05:18.739Z,9.57
2018-10-09T03:07:48.119Z,11.03
2018-10-09T03:10:16.329Z,11.50
2018-10-09T03:12:44.551Z,12.23
2018-10-09T03:15:12.777Z,13.27
2018-10-09T03:17:41.075Z,12.80
2018-10-09T03:20:09.299Z,16.57
2018-10-09T03:22:37.538Z,13.03
2018-10-09T03:25:05.759Z,15.00
2018-10-09T03:27:34.123Z,11.10
2018-10-09T03:30:02.351Z,9.73
2018-10-09T03:32:30.563Z,13.53
2018-10-09T03:34:58.770Z,10.13
2018-10-09T03:37:27.030Z,12.03
2018-10-09T03:39:57.086Z,11.43
2018-10-09T03:42:25.292Z,11.07
2018-10-09T03:44:53.498Z,11.27
2018-10-09T03:47:21.872Z,10.73
2018-10-09T03:49:50.058Z,11.17
2018-10-09T03:52:18.284Z,11.07
2018-10-09T03:54:46.519Z,14.00
2018-10-09T03:57:15.362Z,10.73
2018-10-09T03:59:43.574Z,13.20
2018-10-09T04:02:12.173Z,12.73
2018-10-09T04:04:40.384Z,11.57
2018-10-09T04:07:08.798Z,12.43
2018-10-09T04:09:37.026Z,10.70
2018-10-09T04:12:05.248Z,10.67
2018-10-09T04:14:33.473Z,10.37
2018-10-09T04:17:01.899Z,14.17
2018-10-09T04:19:30.232Z,11.33
2018-10-09T04:21:58.375Z,15.60
2018-10-09T04:24:26.592Z,12.73
2018-10-09T04:26:55.013Z,13.17
2018-10-09T04:29:23.312Z,11.80
2018-10-09T04:31:51.519Z,14.83
2018-10-09T04:34:19.728Z,12.10
2018-10-09T04:36:48.156Z,13.63
2018-10-09T04:39:16.648Z,12.07
2018-10-09T04:41:44.870Z,13.13
2018-10-09T04:44:13.083Z,14.90
2018-10-09T04:46:41.413Z,11.00
2018-10-09T04:49:09.637Z,13.00
2018-10-09T04:51:38.988Z,12.97
2018-10-09T04:54:07.259Z,13.43
2018-10-09T04:56:35.551Z,11.20
2018-10-09T04:59:04.027Z,14.37
2018-10-09T05:01:32.573Z,12.77
2018-10-09T05:04:00.837Z,11.70
2018-10-09T05:06:29.267Z,14.10
2018-10-09T05:08:57.505Z,12.10
2018-10-09T05:11:25.737Z,11.80
2018-10-09T05:13:53.966Z,16.63
2018-10-09T05:16:22.457Z,13.20
2018-10-09T05:18:51.016Z,11.73
2018-10-09T05:21:19.247Z,19.63
2018-10-09T05:23:47.498Z,15.73
2018-10-09T05:26:15.899Z,11.80
2018-10-09T05:28:44.132Z,13.33
2018-10-09T05:31:12.408Z,14.50
2018-10-09T05:33:40.594Z,12.93
2018-10-09T05:39:07.086Z,15.97
2018-10-09T05:41:36.140Z,15.90
2018-10-09T05:44:04.420Z,12.47
2018-10-09T05:46:32.813Z,14.47
2018-10-09T05:49:06.356Z,13.47
2018-10-09T05:51:34.678Z,14.97
2018-10-09T05:54:02.915Z,13.17
2018-10-09T05:56:31.225Z,12.57
2018-10-09T05:58:59.500Z,15.03
2018-10-09T06:01:27.743Z,14.13
2018-10-09T06:03:56.036Z,13.73
2018-10-09T06:06:24.323Z,14.63
2018-10-09T06:08:53.469Z,13.37
2018-10-09T06:11:21.732Z,16.03
2018-10-09T06:13:50.341Z,15.33
2018-10-09T06:16:19.979Z,13.87
2018-10-09T06:18:48.217Z,15.07
2018-10-09T06:21:16.883Z,13.43
2018-10-09T06:23:45.217Z,13.67
2018-10-09T06:26:13.867Z,14.60
2018-10-09T06:28:42.270Z,12.63
2018-10-09T06:31:11.441Z,11.77
2018-10-09T06:33:40.754Z,15.40
2018-10-09T06:36:09.207Z,16.43
2018-10-09T06:38:37.702Z,17.30
2018-10-09T06:41:06.111Z,12.37
2018-10-09T06:43:34.706Z,14.77
2018-10-09T06:46:03.209Z,16.53
2018-10-09T06:48:31.619Z,13.27
2018-10-09T06:50:59.954Z,15.97
2018-10-09T06:53:28.654Z,15.97
2018-10-09T06:55:56.886Z,14.37
2018-10-09T06:58:25.159Z,14.30
2018-10-09T07:00:53.485Z,11.93
2018-10-09T07:03:21.764Z,17.87
2018-10-09T07:05:50.102Z,12.70
2018-10-09T07:08:18.320Z,14.13
2018-10-09T07:10:46.911Z,15.27
2018-10-09T07:13:16.076Z,15.80
2018-10-09T07:15:45.150Z,13.37
2018-10-09T07:18:13.442Z,15.00
2018-10-09T07:20:43.305Z,12.47
2018-10-09T07:23:11.533Z,13.43
2018-10-09T07:25:39.743Z,12.60
2018-10-09T07:28:07.969Z,14.20
2018-10-09T07:30:36.940Z,15.87
2018-10-09T07:33:05.691Z,14.70
2018-10-09T07:35:33.944Z,13.60
2018-10-09T07:38:02.190Z,16.03
2018-10-09T07:40:30.432Z,14.67
2018-10-09T07:42:58.685Z,16.43
2018-10-09T07:45:26.887Z,11.87
2018-10-09T07:47:55.335Z,14.67
2018-10-09T07:50:23.614Z,11.93
2018-10-09T07:52:51.886Z,17.93
2018-10-09T07:55:20.068Z,12.20
2018-10-09T07:57:48.416Z,13.77
2018-10-09T08:00:16.643Z,12.90
2018-10-09T08:02:44.963Z,13.60
2018-10-09T08:05:13.208Z,16.73
2018-10-09T08:07:41.476Z,12.37
2018-10-09T08:10:09.720Z,13.43
2018-10-09T08:12:38.334Z,15.23
2018-10-09T08:15:06.579Z,14.30
2018-10-09T08:17:35.679Z,14.13
2018-10-09T08:20:04.052Z,13.17
2018-10-09T08:22:32.337Z,15.50
2018-10-09T08:25:00.684Z,12.50
2018-10-09T08:27:28.945Z,13.60
2018-10-09T08:29:57.194Z,15.80
2018-10-09T08:32:25.823Z,14.73
2018-10-09T08:34:54.332Z,14.87
2018-10-09T08:37:22.662Z,13.30
2018-10-09T08:39:51.173Z,11.57
2018-10-09T08:42:19.417Z,13.73
2018-10-09T08:44:47.656Z,16.43
2018-10-09T08:47:15.956Z,13.37
2018-10-09T08:49:44.191Z,10.60
2018-10-09T08:52:12.425Z,13.37
2018-10-09T08:54:40.700Z,14.27
2018-10-09T08:57:23.126Z,13.47
2018-10-09T08:59:51.298Z,11.07
2018-10-09T09:02:19.519Z,14.53
2018-10-09T09:04:51.622Z,14.63
2018-10-09T09:07:20.632Z,15.23
2018-10-09T09:09:50.831Z,15.77
2018-10-09T09:12:19.847Z,13.17
2018-10-09T09:14:50.183Z,12.70
2018-10-09T09:17:18.630Z,15.63
2018-10-09T09:19:47.333Z,10.17
2018-10-09T09:22:16.606Z,11.50
2018-10-09T09:24:44.862Z,12.77
2018-10-09T09:27:13.709Z,13.17
2018-10-09T09:29:43.025Z,9.80
2018-10-09T09:32:12.742Z,18.73
2018-10-09T09:34:41.683Z,10.13
2018-10-09T09:37:10.754Z,11.53
2018-10-09T09:39:39.894Z,10.20
2018-10-09T09:42:09.102Z,11.63
2018-10-09T09:44:37.949Z,9.23
2018-10-09T09:47:06.321Z,7.50
2018-10-09T09:49:34.503Z,7.97
2018-10-09T09:52:03.162Z,11.20
2018-10-09T09:54:31.351Z,8.77
2018-10-09T09:56:59.605Z,9.63
2018-10-09T09:59:28.599Z,10.20
2018-10-09T10:01:57.184Z,8.20
2018-10-09T10:04:26.373Z,10.63
2018-10-09T10:06:54.765Z,8.27
2018-10-09T10:09:23.318Z,11.30
2018-10-09T10:11:51.520Z,9.73
2018-10-09T10:14:19.734Z,10.73
2018-10-09T10:16:48.066Z,10.27
2018-10-09T10:19:16.310Z,11.40
2018-10-09T10:21:44.667Z,9.00
2018-10-09T10:24:12.945Z,11.07
2018-10-09T10:26:41.368Z,9.83
2018-10-09T10:29:09.609Z,8.23
2018-10-09T10:31:37.844Z,10.03
2018-10-09T10:34:06.068Z,11.60
2018-10-09T10:36:34.501Z,7.63
2018-10-09T10:39:03.400Z,9.23
2018-10-09T10:41:32.875Z,5.83
2018-10-09T10:44:02.215Z,6.97
2018-10-09T10:46:37.075Z,8.67
2018-10-09T10:49:08.280Z,7.80
2018-10-09T10:51:36.850Z,8.60
2018-10-09T10:54:06.093Z,6.20
2018-10-09T10:56:35.696Z,7.73
2018-10-09T10:59:20.113Z,7.30
2018-10-09T11:01:49.715Z,8.10
2018-10-09T11:04:22.668Z,7.00
2018-10-09T11:06:51.453Z,6.43
2018-10-09T11:09:20.820Z,6.50
2018-10-09T11:11:49.065Z,7.53
2018-10-09T11:14:19.585Z,7.10
2018-10-09T11:16:48.462Z,6.60
2018-10-09T11:19:16.678Z,6.53
2018-10-09T11:21:44.989Z,7.73
2018-10-09T11:24:13.179Z,8.37
2018-10-09T11:26:41.554Z,7.50
2018-10-09T11:29:09.785Z,6.83
2018-10-09T11:31:37.998Z,8.67
2018-10-09T11:34:06.243Z,8.97
2018-10-09T11:36:34.705Z,8.13
2018-10-09T11:39:04.816Z,8.17
2018-10-09T11:41:33.054Z,7.27
2018-10-09T11:44:01.310Z,7.00
2018-10-09T11:46:29.858Z,8.10
2018-10-09T11:48:58.072Z,8.60
2018-10-09T11:51:35.223Z,7.97
2018-10-09T11:55:54.304Z,7.07
2018-10-09T11:58:22.569Z,8.17
2018-10-09T12:00:52.505Z,8.40
2018-10-09T12:03:20.787Z,6.93
2018-10-09T12:05:49.573Z,7.70
2018-10-09T12:08:17.703Z,7.87
2018-10-09T12:10:45.982Z,7.93
2018-10-09T12:13:14.223Z,8.60
2018-10-09T12:15:43.141Z,6.93
2018-10-09T12:18:12.645Z,8.90
2018-10-09T12:20:41.016Z,8.93
2018-10-09T12:23:09.261Z,5.90
2018-10-09T12:25:37.478Z,10.00
2018-10-09T12:28:05.762Z,7.87
2018-10-09T12:30:34.011Z,7.57
2018-10-09T12:33:02.274Z,9.73
2018-10-09T12:35:30.463Z,8.70
2018-10-09T12:37:58.661Z,10.30
2018-10-09T12:40:26.906Z,8.20
2018-10-09T12:42:55.112Z,9.50
2018-10-09T12:45:23.340Z,9.40
2018-10-09T12:47:51.714Z,7.47
2018-10-09T12:50:19.950Z,8.07
2018-10-09T12:52:48.169Z,7.23
2018-10-09T12:55:16.372Z,8.07
2018-10-09T12:57:44.817Z,5.77
2018-10-09T13:00:13.129Z,6.73
2018-10-09T13:02:41.331Z,8.77
2018-10-09T13:05:10.178Z,8.30
2018-10-09T13:07:38.524Z,7.07
2018-10-09T13:10:07.210Z,7.55
2018-10-09T13:12:35.612Z,7.53
2018-10-09T13:15:03.861Z,5.40
2018-10-09T13:17:32.247Z,7.27
2018-10-09T13:20:00.479Z,7.37
2018-10-09T13:22:29.117Z,5.73
2018-10-09T13:24:56.926Z,7.40
2018-10-09T13:27:25.323Z,7.70
2018-10-09T13:29:53.559Z,6.53
2018-10-09T13:32:21.761Z,5.23
2018-10-09T13:36:56.128Z,7.07
2018-10-09T13:39:38.728Z,8.73
2018-10-09T13:42:06.952Z,8.60
2018-10-09T13:44:35.894Z,6.70
2018-10-09T13:50:07.935Z,6.45
2018-10-09T13:52:36.138Z,6.63
2018-10-09T13:55:05.364Z,8.33
2018-10-09T13:58:02.597Z,7.83
2018-10-09T14:11:06.605Z,6.53
2018-10-09T14:17:47.468Z,5.60
2018-10-09T14:39:32.371Z,7.33
2018-10-09T14:42:00.575Z,8.67
2018-10-09T14:50:15.519Z,6.47
2018-10-09T14:52:50.532Z,7.80
2018-10-09T14:55:18.753Z,4.43
2018-10-09T14:57:47.181Z,4.97
2018-10-09T15:00:15.396Z,4.83
2018-10-09T15:02:43.626Z,5.60
2018-10-09T15:05:11.843Z,4.57
2018-10-09T15:07:40.290Z,6.27
2018-10-09T15:10:19.183Z,5.77
2018-10-09T15:12:49.528Z,4.80
2018-10-09T15:15:17.763Z,5.63
2018-10-09T15:17:46.374Z,4.67
2018-10-09T15:20:15.848Z,6.00
2018-10-09T15:31:52.607Z,6.27
2018-10-09T15:39:15.484Z,6.57
2018-10-09T15:44:45.265Z,9.10
2018-10-09T15:47:19.166Z,8.23
2018-10-09T15:49:47.372Z,7.20
2018-10-09T15:52:15.795Z,4.90
2018-10-09T15:54:44.016Z,5.93
2018-10-09T15:57:12.374Z,6.20
2018-10-09T15:59:42.364Z,6.30
2018-10-09T16:02:10.561Z,8.27
2018-10-09T16:05:08.751Z,9.23
2018-10-09T16:07:42.991Z,5.50
2018-10-09T16:10:42.481Z,6.33
2018-10-09T16:19:19.672Z,8.60
2018-10-09T16:21:47.930Z,5.83
2018-10-09T16:24:16.191Z,4.43
2018-10-09T16:26:44.512Z,4.43
2018-10-09T16:29:12.715Z,7.77
2018-10-09T16:31:40.950Z,6.80
2018-10-09T16:34:09.385Z,7.33
2018-10-09T16:36:40.342Z,8.37
2018-10-09T16:39:10.138Z,6.57
2018-10-09T16:41:47.340Z,10.07
2018-10-09T16:44:18.710Z,6.83
2018-10-09T16:46:50.222Z,7.47
2018-10-09T16:49:18.373Z,6.50
2018-10-09T16:51:46.629Z,10.83
2018-10-09T16:54:24.895Z,10.80
2018-10-09T16:56:55.914Z,8.80
2018-10-09T16:59:26.838Z,6.20
2018-10-09T17:01:55.090Z,6.23
2018-10-09T17:04:24.943Z,7.87
2018-10-09T17:06:57.962Z,5.77
2018-10-09T17:09:27.417Z,4.63
2018-10-09T17:11:56.698Z,15.90
2018-10-09T17:14:26.148Z,9.20
2018-10-09T17:16:55.534Z,8.13
2018-10-09T17:19:36.247Z,8.03
2018-10-09T17:22:05.129Z,7.07
2018-10-09T17:24:33.355Z,8.40
2018-10-09T17:27:01.639Z,13.13
2018-10-09T17:29:29.845Z,6.83
2018-10-09T17:31:58.085Z,6.77
2018-10-09T17:34:26.301Z,7.57
2018-10-09T17:36:54.576Z,8.80
2018-10-09T17:39:22.848Z,10.33
2018-10-09T17:41:51.038Z,11.27
2018-10-09T17:44:20.309Z,7.80
2018-10-09T17:46:57.243Z,13.40
2018-10-09T17:49:25.410Z,8.27
2018-10-09T17:51:53.653Z,12.53
2018-10-09T17:54:21.859Z,12.13
2018-10-09T17:56:52.456Z,9.93
2018-10-09T17:59:20.682Z,12.97
2018-10-09T18:01:48.936Z,12.13
2018-10-09T18:04:17.189Z,11.27
2018-10-09T18:06:45.451Z,12.57
2018-10-09T18:09:13.685Z,10.00
2018-10-09T18:11:42.318Z,11.00
2018-10-09T18:14:13.866Z,10.63
2018-10-09T18:16:53.677Z,12.57
2018-10-09T18:19:23.805Z,12.63
2018-10-09T18:24:50.345Z,14.87
2018-10-09T18:27:18.679Z,13.00
2018-10-09T18:39:12.162Z,12.20
2018-10-09T18:41:45.990Z,14.53
2018-10-09T18:44:23.170Z,18.10
2018-10-09T18:46:51.552Z,15.60
2018-10-09T18:49:20.468Z,14.63
2018-10-09T18:51:56.649Z,13.00
2018-10-09T18:54:25.584Z,15.30
2018-10-09T18:56:55.388Z,14.60
2018-10-09T18:59:23.617Z,23.10
2018-10-09T19:01:51.863Z,14.27
2018-10-09T19:05:05.510Z,13.07
2018-10-09T19:07:36.089Z,16.20
2018-10-09T19:10:05.389Z,16.47
2018-10-09T19:12:33.596Z,13.57
2018-10-09T19:15:02.798Z,12.40
2018-10-09T19:17:31.541Z,11.63
2018-10-09T19:23:13.186Z,13.50
2018-10-09T19:25:46.712Z,13.67
2018-10-09T19:28:39.633Z,13.80
2018-10-09T19:31:07.875Z,15.13
2018-10-09T19:33:36.650Z,12.50
2018-10-09T19:36:20.589Z,16.27
2018-10-09T19:38:49.165Z,18.33
2018-10-09T19:41:17.384Z,12.13
2018-10-09T19:43:45.609Z,17.07
2018-10-09T19:46:14.664Z,19.43
2018-10-09T19:48:43.394Z,11.40
2018-10-09T19:51:11.810Z,12.03
2018-10-09T19:53:39.858Z,16.00
2018-10-09T19:56:08.201Z,10.83
2018-10-09T19:58:36.387Z,15.40
2018-10-09T20:01:04.652Z,12.67
2018-10-09T20:03:32.883Z,13.13
2018-10-09T20:06:01.276Z,17.50
2018-10-09T20:08:29.482Z,12.43
2018-10-09T20:10:57.679Z,13.40
2018-10-09T20:13:25.903Z,17.33
2018-10-09T20:15:54.186Z,14.17
2018-10-09T20:18:22.411Z,18.53
2018-10-09T20:20:50.802Z,13.80
2018-10-09T20:23:19.015Z,16.83
2018-10-09T20:25:47.304Z,18.30
2018-10-09T20:31:18.414Z,15.03
2018-10-09T20:33:46.612Z,17.40
2018-10-09T20:36:14.978Z,15.10
2018-10-09T20:38:43.192Z,15.53
2018-10-09T20:41:11.415Z,17.37
2018-10-09T20:43:40.190Z,19.80
2018-10-09T20:46:08.502Z,14.97
2018-10-09T20:48:36.705Z,17.47
2018-10-09T20:51:04.903Z,15.57
2018-10-09T20:53:33.106Z,15.53
2018-10-09T20:56:01.524Z,17.05
2018-10-09T20:58:29.900Z,18.53
2018-10-09T21:01:02.928Z,15.03
2018-10-09T21:03:31.486Z,17.23
2018-10-09T21:06:01.285Z,17.70
2018-10-09T21:08:29.432Z,16.23
2018-10-09T21:10:58.259Z,15.90
2018-10-09T21:13:26.471Z,16.10
2018-10-09T21:15:54.864Z,17.17
2018-10-09T21:18:23.149Z,36.80
2018-10-09T21:20:51.376Z,14.87
2018-10-09T21:23:19.598Z,20.50
2018-10-09T21:25:47.840Z,19.40
2018-10-09T21:28:16.048Z,18.97
2018-10-09T21:30:44.286Z,18.77
2018-10-09T21:33:13.517Z,18.03
2018-10-09T21:35:43.148Z,17.33
2018-10-09T21:38:11.986Z,18.33
2018-10-09T21:40:40.574Z,16.83
2018-10-09T21:43:08.752Z,20.27
2018-10-09T21:45:38.856Z,18.90
2018-10-09T21:48:07.061Z,16.87
2018-10-09T21:50:35.266Z,20.07
2018-10-09T21:53:03.488Z,16.10
2018-10-09T21:55:31.876Z,19.07
2018-10-09T21:58:00.098Z,22.60
2018-10-09T22:00:28.361Z,17.07
2018-10-09T22:02:56.571Z,18.67
2018-10-09T22:05:24.785Z,19.90
2018-10-09T22:07:54.576Z,19.73
2018-10-09T22:10:22.774Z,19.17
2018-10-09T22:12:51.027Z,22.83
2018-10-09T22:15:19.240Z,20.03
2018-10-09T22:17:48.009Z,21.17
2018-10-09T22:20:20.738Z,16.73
2018-10-09T22:22:48.956Z,20.53
2018-10-09T22:25:17.407Z,20.30
2018-10-09T22:27:45.851Z,21.30
2018-10-09T22:30:14.094Z,17.80
2018-10-09T22:32:43.082Z,21.30
2018-10-09T22:35:11.740Z,19.03
2018-10-09T22:37:40.150Z,19.73
2018-10-09T22:40:08.587Z,18.50
2018-10-09T22:42:36.826Z,21.93
2018-10-09T22:45:05.100Z,20.73
2018-10-09T22:47:34.493Z,20.37
2018-10-09T22:50:02.687Z,21.13
2018-10-09T22:52:31.907Z,24.03
2018-10-09T22:55:00.136Z,19.93
2018-10-09T22:57:28.404Z,20.17
2018-10-09T22:59:56.624Z,21.10
2018-10-09T23:02:24.846Z,20.37
2018-10-09T23:04:53.076Z,19.60
2018-10-09T23:07:21.511Z,23.70
2018-10-09T23:09:50.256Z,24.87
2018-10-09T23:12:18.799Z,22.17
2018-10-09T23:14:48.039Z,27.67
2018-10-09T23:17:16.428Z,21.57
2018-10-09T23:19:44.994Z,21.10
2018-10-09T23:22:13.222Z,22.97
2018-10-09T23:24:42.028Z,24.73
2018-10-09T23:27:10.348Z,21.67
2018-10-09T23:29:38.716Z,20.30
2018-10-09T23:32:07.017Z,23.87
2018-10-09T23:34:35.283Z,22.13
2018-10-09T23:37:04.635Z,22.53
2018-10-09T23:39:32.999Z,22.97
2018-10-09T23:42:02.844Z,22.80
2018-10-09T23:44:31.299Z,23.73
2018-10-09T23:47:00.321Z,21.23
2018-10-09T23:49:29.044Z,22.07
2018-10-09T23:51:57.689Z,21.03
2018-10-09T23:54:26.539Z,22.10
2018-10-09T23:56:54.788Z,21.33
2018-10-09T23:59:23.457Z,24.00
